Time;durP1;ratioP1;P1;durP2;ratioP2;P2;SDS_P1;SDS_P2;PMS_P1;PMS_P2;Temp;Humidity;BMP_temperature;BMP_pressure;BME280_temperature;BME280_humidity;BME280_pressure;Samples;Min_cycle;Max_cycle;Signal;HPM_P1;HPM_P2
2022/04/19 00:00:52;;;;;;;5.53;3.40;;;8.70;65.10;;;;;;6126480;23;20376;-81
2022/04/19 00:03:19;;;;;;;5.65;3.47;;;8.70;65.50;;;;;;6109261;23;20406;-80
2022/04/19 00:05:46;;;;;;;4.53;2.85;;;8.80;65.00;;;;;;6125251;23;20435;-80
2022/04/19 00:08:15;;;;;;;5.47;3.33;;;8.70;64.90;;;;;;6123400;23;20887;-79
2022/04/19 00:10:43;;;;;;;4.70;2.67;;;8.70;64.50;;;;;;6123537;23;20413;-80
2022/04/19 00:13:16;;;;;;;5.47;2.73;;;8.70;64.00;;;;;;6124764;23;20390;-81
2022/04/19 00:15:44;;;;;;;5.13;2.80;;;8.70;63.60;;;;;;6125082;23;20775;-78
2022/04/19 00:18:11;;;;;;;5.07;3.20;;;8.60;63.80;;;;;;6123714;23;20705;-79
2022/04/19 00:20:42;;;;;;;5.13;3.38;;;8.60;63.30;;;;;;6122301;23;20847;-80
2022/04/19 00:23:13;;;;;;;6.10;3.27;;;8.60;64.20;;;;;;6121813;23;20362;-80
2022/04/19 00:25:41;;;;;;;4.63;3.70;;;8.50;64.50;;;;;;6123836;23;20384;-79
2022/04/19 00:28:09;;;;;;;8.13;3.42;;;8.50;64.50;;;;;;6124505;23;20740;-78
2022/04/19 00:30:37;;;;;;;5.20;4.15;;;8.00;66.20;;;;;;6122227;23;20918;-80
2022/04/19 00:33:05;;;;;;;5.03;3.63;;;7.90;67.40;;;;;;6121390;23;20402;-80
2022/04/19 00:35:32;;;;;;;7.63;4.13;;;7.80;67.60;;;;;;6122228;23;20380;-79
2022/04/19 00:37:59;;;;;;;5.38;3.67;;;7.90;68.40;;;;;;6122339;23;20409;-78
2022/04/19 00:40:28;;;;;;;5.72;3.60;;;7.80;68.40;;;;;;6122468;23;20375;-78
2022/04/19 00:42:58;;;;;;;6.30;3.58;;;7.90;68.40;;;;;;6122728;23;20704;-79
2022/04/19 00:45:25;;;;;;;6.22;3.78;;;8.00;67.40;;;;;;6123679;23;20879;-81
2022/04/19 00:47:54;;;;;;;5.88;3.67;;;8.20;67.40;;;;;;6123497;23;20877;-79
2022/04/19 00:50:22;;;;;;;6.38;3.70;;;8.20;67.00;;;;;;6124192;23;20380;-79
2022/04/19 00:52:52;;;;;;;5.00;3.58;;;8.30;66.10;;;;;;6113565;23;20389;-78
2022/04/19 00:55:20;;;;;;;6.38;4.22;;;8.30;66.40;;;;;;6120710;23;20380;-80
2022/04/19 00:57:47;;;;;;;7.13;4.67;;;8.20;67.10;;;;;;6125910;23;20458;-80
2022/04/19 01:00:15;;;;;;;5.15;4.05;;;8.10;67.90;;;;;;6123363;23;20372;-79
2022/04/19 01:02:42;;;;;;;6.35;4.50;;;8.20;67.20;;;;;;6122403;23;20384;-79
2022/04/19 01:05:09;;;;;;;8.30;5.00;;;7.80;69.10;;;;;;6122650;23;20423;-79
2022/04/19 01:07:39;;;;;;;7.00;4.47;;;7.60;70.40;;;;;;6122430;23;20375;-79
2022/04/19 01:10:06;;;;;;;6.07;4.55;;;7.70;70.20;;;;;;6125440;23;20837;-79
2022/04/19 01:15:19;;;;;;;7.20;4.30;;;7.40;72.40;;;;;;6122414;23;20435;-79
2022/04/19 01:17:47;;;;;;;6.60;4.73;;;7.60;71.10;;;;;;6125413;23;20523;-79
2022/04/19 01:20:14;;;;;;;7.97;4.78;;;7.70;70.80;;;;;;6110638;23;20380;-80
2022/04/19 01:22:42;;;;;;;6.57;4.68;;;7.70;71.60;;;;;;6124383;23;20756;-78
2022/04/19 01:25:11;;;;;;;7.07;4.50;;;7.70;70.50;;;;;;6123681;23;20376;-78
2022/04/19 01:27:38;;;;;;;6.47;4.57;;;7.80;70.00;;;;;;6122312;23;20379;-80
2022/04/19 01:30:08;;;;;;;7.47;4.68;;;7.90;69.20;;;;;;6115576;23;20385;-80
2022/04/19 01:32:36;;;;;;;6.85;4.50;;;7.90;69.60;;;;;;6114308;23;20375;-81
2022/04/19 01:35:06;;;;;;;7.07;4.63;;;7.80;69.80;;;;;;6127082;23;20960;-80
2022/04/19 01:37:35;;;;;;;6.38;4.50;;;7.70;70.00;;;;;;6128996;23;20841;-80
2022/04/19 01:40:18;;;;;;;5.18;4.53;;;7.60;71.00;;;;;;6112601;23;20383;-79
2022/04/19 01:43:01;;;;;;;5.67;5.07;;;7.60;70.80;;;;;;6124485;23;20399;-80
2022/04/19 01:45:33;;;;;;;4.93;4.20;;;7.20;72.90;;;;;;6124518;23;20395;-80
2022/04/19 01:48:01;;;;;;;6.22;4.40;;;7.30;71.50;;;;;;6126800;23;20384;-80
2022/04/19 01:50:29;;;;;;;6.97;4.72;;;7.40;71.40;;;;;;6123190;23;20383;-78
2022/04/19 01:52:59;;;;;;;6.32;4.60;;;7.50;70.60;;;;;;6126865;23;20444;-80
2022/04/19 01:55:26;;;;;;;5.93;4.68;;;7.50;70.90;;;;;;6128042;23;20442;-78
2022/04/19 01:57:58;;;;;;;9.43;5.00;;;7.60;70.10;;;;;;6124450;23;20528;-79
2022/04/19 02:00:26;;;;;;;6.93;4.03;;;7.50;70.20;;;;;;6119454;23;20390;-78
2022/04/19 02:02:56;;;;;;;7.72;4.68;;;7.30;70.50;;;;;;6131292;23;20364;-79
2022/04/19 02:05:28;;;;;;;5.23;4.33;;;7.40;69.70;;;;;;6122112;23;20471;-79
2022/04/19 02:07:55;;;;;;;5.38;4.22;;;7.40;69.60;;;;;;6128232;23;20380;-78
2022/04/19 02:10:22;;;;;;;6.47;3.95;;;7.40;70.20;;;;;;6130221;23;20864;-79
2022/04/19 02:12:52;;;;;;;7.38;4.18;;;7.40;69.70;;;;;;6130989;23;20379;-77
2022/04/19 02:15:19;;;;;;;5.65;4.20;;;7.40;69.30;;;;;;6124397;23;20697;-80
2022/04/19 02:17:47;;;;;;;7.80;4.78;;;7.30;69.60;;;;;;6128776;23;20590;-79
2022/04/19 02:20:16;;;;;;;5.13;4.30;;;7.10;70.00;;;;;;6125330;23;20388;-78
2022/04/19 02:22:44;;;;;;;5.00;4.30;;;7.20;69.90;;;;;;6126855;23;20386;-80
2022/04/19 02:25:34;;;;;;;6.00;4.60;;;7.00;70.50;;;;;;6126538;23;20430;-79
2022/04/19 02:28:00;;;;;;;7.57;4.65;;;7.00;70.20;;;;;;6125994;23;20371;-79
2022/04/19 02:30:28;;;;;;;5.03;4.50;;;6.90;71.00;;;;;;6127755;23;20383;-79
2022/04/19 02:32:55;;;;;;;4.40;4.00;;;6.90;70.40;;;;;;6128538;23;20435;-80
2022/04/19 02:35:23;;;;;;;5.05;3.95;;;6.90;70.10;;;;;;6130663;23;20376;-77
2022/04/19 02:37:55;;;;;;;6.00;4.85;;;7.00;70.40;;;;;;6127043;23;20384;-80
2022/04/19 02:40:24;;;;;;;5.22;4.22;;;6.90;70.70;;;;;;6127308;23;20376;-79
2022/04/19 02:42:54;;;;;;;6.68;4.70;;;6.90;70.20;;;;;;6126951;23;20407;-77
2022/04/19 02:45:23;;;;;;;6.18;4.20;;;6.80;70.20;;;;;;6115733;23;20773;-77
2022/04/19 02:48:04;;;;;;;4.45;4.03;;;6.70;70.70;;;;;;6127628;23;20383;-79
2022/04/19 02:50:42;;;;;;;5.88;4.93;;;6.70;70.70;;;;;;6129168;23;20382;-79
2022/04/19 02:53:12;;;;;;;7.97;4.90;;;6.40;72.10;;;;;;6123714;23;20446;-79
2022/04/19 02:55:42;;;;;;;5.63;4.70;;;6.40;72.40;;;;;;6121766;23;20772;-79
2022/04/19 02:58:13;;;;;;;8.75;5.05;;;6.40;72.60;;;;;;6122383;23;20372;-78
2022/04/19 03:00:40;;;;;;;5.63;4.93;;;6.50;71.30;;;;;;6123157;23;20411;-78
2022/04/19 03:03:10;;;;;;;7.03;5.22;;;6.60;71.50;;;;;;6124236;23;20937;-78
2022/04/19 03:05:40;;;;;;;7.05;5.57;;;6.60;71.70;;;;;;6127482;23;20379;-77
2022/04/19 03:08:09;;;;;;;6.00;4.82;;;6.60;72.10;;;;;;6121872;23;20383;-78
2022/04/19 03:10:36;;;;;;;5.85;5.25;;;6.60;71.80;;;;;;6129156;23;20375;-79
2022/04/19 03:13:03;;;;;;;6.63;5.35;;;6.30;73.30;;;;;;6123659;23;20439;-77
2022/04/19 03:15:30;;;;;;;7.32;4.80;;;6.20;73.70;;;;;;6125075;23;20394;-80
2022/04/19 03:17:57;;;;;;;6.90;5.45;;;6.20;73.80;;;;;;6126008;23;20380;-78
2022/04/19 03:20:27;;;;;;;5.15;4.65;;;6.20;74.30;;;;;;6096156;23;20391;-78
2022/04/19 03:28:24;;;;;;;7.00;5.20;;;6.30;72.80;;;;;;6120271;23;20379;-79
2022/04/19 03:30:51;;;;;;;9.73;5.88;;;6.30;73.40;;;;;;6128066;23;20454;-81
2022/04/19 03:33:18;;;;;;;8.02;5.60;;;6.30;74.30;;;;;;6124233;23;20443;-77
2022/04/19 03:35:45;;;;;;;8.18;5.85;;;6.40;74.30;;;;;;6116211;23;20411;-78
2022/04/19 03:38:12;;;;;;;6.17;5.20;;;6.40;73.70;;;;;;6101667;23;20380;-81
2022/04/19 03:40:39;;;;;;;8.48;5.80;;;6.40;73.20;;;;;;6126410;23;20435;-81
2022/04/19 03:43:07;;;;;;;7.50;5.25;;;6.30;74.50;;;;;;6128988;23;20377;-80
2022/04/19 03:45:34;;;;;;;6.70;4.88;;;6.30;74.10;;;;;;6112862;23;20751;-77
2022/04/19 03:48:01;;;;;;;5.65;4.75;;;6.20;74.00;;;;;;6120976;23;20809;-78
2022/04/19 03:50:28;;;;;;;5.82;4.93;;;6.20;73.00;;;;;;6120222;23;20757;-77
2022/04/19 03:52:55;;;;;;;7.57;5.22;;;6.20;72.40;;;;;;6125716;23;20371;-81
2022/04/19 03:55:23;;;;;;;7.47;5.63;;;6.20;72.10;;;;;;6125213;23;20391;-78
2022/04/19 03:57:50;;;;;;;8.88;5.43;;;6.20;74.30;;;;;;6124405;23;20752;-79
2022/04/19 04:00:38;;;;;;;5.70;4.97;;;6.10;73.80;;;;;;6090926;23;20384;-79
2022/04/19 04:03:08;;;;;;;8.20;5.80;;;6.10;74.80;;;;;;6066779;23;20719;-80
2022/04/19 04:05:35;;;;;;;5.38;4.88;;;6.00;74.50;;;;;;6068616;23;20424;-77
2022/04/19 04:08:02;;;;;;;6.55;4.82;;;5.90;74.20;;;;;;6068450;23;20936;-80
2022/04/19 04:10:29;;;;;;;5.97;5.30;;;5.80;74.10;;;;;;6070366;23;20798;-80
2022/04/19 04:12:58;;;;;;;7.38;5.72;;;5.70;74.50;;;;;;6068976;23;20417;-80
2022/04/19 04:15:25;;;;;;;6.97;5.68;;;5.50;76.60;;;;;;6057799;23;20404;-80
2022/04/19 04:17:52;;;;;;;6.80;5.72;;;5.50;77.30;;;;;;6071050;23;20381;-79
2022/04/19 04:20:20;;;;;;;8.57;6.70;;;5.40;79.30;;;;;;6095651;23;20389;-79
2022/04/19 04:22:51;;;;;;;9.63;7.00;;;5.50;79.00;;;;;;6073659;23;20480;-79
2022/04/19 04:25:18;;;;;;;6.85;6.15;;;5.50;78.90;;;;;;6057022;23;20386;-81
2022/04/19 04:27:45;;;;;;;8.48;6.20;;;5.60;77.60;;;;;;6072710;23;20385;-80
2022/04/19 04:30:12;;;;;;;9.15;6.85;;;5.70;77.70;;;;;;6079000;23;20393;-78
2022/04/19 04:32:40;;;;;;;7.20;5.87;;;5.70;78.90;;;;;;6071854;23;20497;-79
2022/04/19 04:35:11;;;;;;;7.85;6.22;;;5.60;79.00;;;;;;6121822;23;20387;-79
2022/04/19 04:37:38;;;;;;;6.10;5.45;;;5.70;77.60;;;;;;6126462;23;20430;-77
2022/04/19 04:40:05;;;;;;;11.05;6.53;;;5.80;77.30;;;;;;6115877;23;20405;-80
2022/04/19 04:42:32;;;;;;;7.47;5.90;;;5.80;76.40;;;;;;6114371;23;20708;-77
2022/04/19 04:44:59;;;;;;;8.43;6.18;;;5.90;76.20;;;;;;6125606;23;20384;-77
2022/04/19 04:50:13;;;;;;;7.37;6.30;;;5.90;76.30;;;;;;6100394;23;20460;-78
2022/04/19 04:52:42;;;;;;;6.75;5.60;;;5.80;76.80;;;;;;6126524;23;20383;-79
2022/04/19 04:55:09;;;;;;;6.43;5.47;;;5.80;76.40;;;;;;6126086;23;20376;-80
2022/04/19 04:57:36;;;;;;;8.88;6.13;;;5.70;76.40;;;;;;6117593;23;20381;-76
2022/04/19 05:00:07;;;;;;;7.38;6.40;;;5.60;77.90;;;;;;6113064;23;20413;-79
2022/04/19 05:02:33;;;;;;;9.35;6.95;;;5.60;78.10;;;;;;6115156;23;20364;-77
2022/04/19 05:05:00;;;;;;;10.33;7.13;;;5.60;77.80;;;;;;6125461;23;20801;-77
2022/04/19 05:07:27;;;;;;;8.48;6.90;;;5.60;78.40;;;;;;6124286;23;20392;-80
2022/04/19 05:09:59;;;;;;;7.93;6.65;;;5.60;77.70;;;;;;6125428;23;20380;-78
2022/04/19 05:12:28;;;;;;;8.43;6.80;;;5.60;77.40;;;;;;6127629;23;20745;-78
2022/04/19 05:14:55;;;;;;;10.77;6.75;;;5.70;77.60;;;;;;6126355;23;20378;-79
2022/04/19 05:17:22;;;;;;;10.65;7.72;;;5.60;77.30;;;;;;6123055;23;20380;-79
2022/04/19 05:19:49;;;;;;;9.55;7.35;;;5.70;77.60;;;;;;6127638;23;20384;-77
2022/04/19 05:22:17;;;;;;;8.55;7.03;;;5.80;77.60;;;;;;6126219;23;20384;-80
2022/04/19 05:24:44;;;;;;;10.63;7.28;;;5.70;77.60;;;;;;6127407;23;20379;-80
2022/04/19 05:27:10;;;;;;;14.40;7.00;;;5.80;77.50;;;;;;6126602;23;20418;-81
2022/04/19 05:29:40;;;;;;;13.57;7.97;;;5.90;77.70;;;;;;6125219;23;20876;-79
2022/04/19 05:32:08;;;;;;;10.98;7.32;;;5.90;78.40;;;;;;6124298;23;20442;-79
2022/04/19 05:34:34;;;;;;;9.40;7.47;;;5.90;78.20;;;;;;6125503;23;20438;-80
2022/04/19 05:37:01;;;;;;;9.35;7.53;;;5.80;79.50;;;;;;6125458;23;20390;-79
2022/04/19 05:39:28;;;;;;;12.05;7.45;;;5.90;78.70;;;;;;6137068;23;20387;-79
2022/04/19 05:42:17;;;;;;;10.40;7.80;;;6.00;78.60;;;;;;6125249;23;20875;-78
2022/04/19 05:44:44;;;;;;;10.75;7.88;;;6.10;78.50;;;;;;6068817;23;20373;-78
2022/04/19 05:47:14;;;;;;;12.40;9.07;;;6.10;79.30;;;;;;6094764;23;20519;-79
2022/04/19 05:49:40;;;;;;;14.40;9.43;;;6.10;79.20;;;;;;6094662;23;20378;-80
2022/04/19 05:52:07;;;;;;;13.57;9.53;;;6.20;78.60;;;;;;6054646;23;20389;-78
2022/04/19 05:54:40;;;;;;;11.70;9.50;;;6.30;78.40;;;;;;6096368;23;20377;-80
2022/04/19 05:57:09;;;;;;;14.30;9.77;;;6.40;77.50;;;;;;6071356;23;20902;-79
2022/04/19 05:59:41;;;;;;;12.77;9.90;;;6.60;77.00;;;;;;6092465;23;20444;-78
2022/04/19 06:04:53;;;;;;;17.63;11.60;;;6.90;79.00;;;;;;6095723;23;20386;-79
2022/04/19 06:07:21;;;;;;;17.35;12.10;;;7.00;78.10;;;;;;6070671;23;20460;-80
2022/04/19 06:09:54;;;;;;;15.52;11.02;;;7.20;77.60;;;;;;6068581;23;20393;-77
2022/04/19 06:12:21;;;;;;;14.38;10.48;;;7.20;76.40;;;;;;6068794;23;20392;-80
2022/04/19 06:14:47;;;;;;;13.93;9.20;;;7.30;76.50;;;;;;6095097;23;20433;-79
2022/04/19 06:17:17;;;;;;;12.45;8.32;;;7.40;77.30;;;;;;6069593;23;20393;-77
2022/04/19 06:19:44;;;;;;;10.23;8.18;;;7.50;77.20;;;;;;6066187;23;20389;-77
2022/04/19 06:22:14;;;;;;;10.77;7.95;;;7.60;76.30;;;;;;6070686;23;20442;-79
2022/04/19 06:24:41;;;;;;;9.95;7.82;;;7.70;75.80;;;;;;6066957;23;20417;-79
2022/04/19 06:27:09;;;;;;;10.60;7.73;;;7.80;75.80;;;;;;6095548;23;20382;-79
2022/04/19 06:29:37;;;;;;;14.00;8.27;;;7.80;75.20;;;;;;6069418;23;20469;-80
2022/04/19 06:32:04;;;;;;;12.27;8.27;;;8.00;74.20;;;;;;6068795;23;20386;-77
2022/04/19 06:34:31;;;;;;;11.07;7.70;;;8.10;73.40;;;;;;6072164;23;20842;-80
2022/04/19 06:36:58;;;;;;;10.05;8.18;;;8.30;72.90;;;;;;6123289;23;20434;-77
2022/04/19 06:39:25;;;;;;;8.60;7.05;;;8.40;71.90;;;;;;6100137;23;20868;-79
2022/04/19 06:41:53;;;;;;;9.98;7.40;;;8.50;71.60;;;;;;6124759;23;20368;-77
2022/04/19 06:44:21;;;;;;;11.52;7.70;;;8.80;70.80;;;;;;6123092;23;20852;-80
2022/04/19 06:46:50;;;;;;;9.90;7.50;;;8.90;70.60;;;;;;6107825;23;20767;-79
2022/04/19 06:49:17;;;;;;;9.85;7.18;;;9.00;70.30;;;;;;6103823;23;20378;-77
2022/04/19 06:51:44;;;;;;;8.20;6.28;;;9.20;70.00;;;;;;6125950;23;20495;-77
2022/04/19 06:54:12;;;;;;;9.30;6.80;;;9.30;68.80;;;;;;6131141;23;20868;-80
2022/04/19 06:56:39;;;;;;;9.85;6.90;;;9.40;68.30;;;;;;6123680;23;20387;-77
2022/04/19 06:59:08;;;;;;;8.38;6.60;;;9.50;67.70;;;;;;6123266;23;20855;-77
2022/04/19 07:01:37;;;;;;;12.32;7.50;;;9.70;64.80;;;;;;6125044;23;20371;-77
2022/04/19 07:04:05;;;;;;;10.23;6.50;;;9.90;64.30;;;;;;6124385;23;20430;-81
2022/04/19 07:06:33;;;;;;;12.45;7.07;;;10.00;61.70;;;;;;6127137;23;20371;-79
2022/04/19 07:09:00;;;;;;;9.13;6.60;;;10.20;61.20;;;;;;6121541;23;20391;-78
2022/04/19 07:11:27;;;;;;;11.77;7.68;;;10.30;59.90;;;;;;6099760;23;20381;-80
2022/04/19 07:13:56;;;;;;;8.67;7.33;;;10.40;58.70;;;;;;6120870;23;20924;-80
2022/04/19 07:16:23;;;;;;;11.68;6.90;;;10.60;60.60;;;;;;6121637;23;20749;-79
2022/04/19 07:18:50;;;;;;;8.55;7.03;;;10.90;58.90;;;;;;6122801;23;20372;-77
2022/04/19 07:27:11;;;;;;;9.55;5.72;;;11.80;55.80;;;;;;6120011;23;20446;-77
2022/04/19 07:29:38;;;;;;;8.95;6.88;;;11.90;53.60;;;;;;6123740;23;20713;-77
2022/04/19 07:32:06;;;;;;;7.75;6.68;;;12.10;52.80;;;;;;6122821;23;20380;-79
2022/04/19 07:34:33;;;;;;;9.40;6.60;;;12.00;50.30;;;;;;6121306;23;20713;-77
2022/04/19 07:37:00;;;;;;;8.05;6.28;;;12.10;54.20;;;;;;6127693;23;20388;-77
2022/04/19 07:39:27;;;;;;;9.98;6.47;;;12.40;54.40;;;;;;6121695;23;20852;-78
2022/04/19 07:41:55;;;;;;;9.50;6.53;;;12.40;52.80;;;;;;6123194;23;20379;-81
2022/04/19 07:44:23;;;;;;;7.55;6.22;;;12.30;52.00;;;;;;6123281;23;20431;-79
2022/04/19 07:46:52;;;;;;;7.82;6.20;;;12.60;51.20;;;;;;6124781;23;21223;-79
2022/04/19 07:49:19;;;;;;;12.27;6.75;;;12.70;50.70;;;;;;6095943;23;20394;-79
2022/04/19 07:51:46;;;;;;;11.93;6.63;;;13.00;51.50;;;;;;6123027;23;20404;-79
2022/04/19 07:54:13;;;;;;;8.25;6.45;;;13.20;49.40;;;;;;6124568;23;20406;-80
2022/04/19 07:56:40;;;;;;;8.75;6.78;;;13.30;48.90;;;;;;6112890;23;20376;-81
2022/04/19 07:59:07;;;;;;;10.73;7.47;;;13.50;49.70;;;;;;6107172;23;20430;-80
2022/04/19 08:01:34;;;;;;;8.80;6.90;;;13.70;47.50;;;;;;6117724;23;20457;-79
2022/04/19 08:04:02;;;;;;;9.98;6.95;;;13.70;47.70;;;;;;6123462;23;20867;-77
2022/04/19 08:06:29;;;;;;;9.30;7.30;;;13.90;47.00;;;;;;6119206;23;20384;-79
2022/04/19 08:08:56;;;;;;;10.63;7.03;;;14.10;48.10;;;;;;6120181;23;20442;-80
2022/04/19 08:11:31;;;;;;;12.18;7.55;;;14.20;48.80;;;;;;6123528;23;20416;-80
2022/04/19 08:13:59;;;;;;;10.45;7.50;;;14.30;45.90;;;;;;6124776;23;20383;-78
2022/04/19 08:16:26;;;;;;;11.57;7.00;;;14.10;47.20;;;;;;6122618;23;20953;-79
2022/04/19 08:18:54;;;;;;;8.70;7.30;;;14.30;45.70;;;;;;6125371;23;20388;-78
2022/04/19 08:21:22;;;;;;;8.20;6.47;;;14.60;48.40;;;;;;6121440;23;20387;-78
2022/04/19 08:23:49;;;;;;;7.60;6.50;;;14.80;46.30;;;;;;6124594;23;20380;-79
2022/04/19 08:26:16;;;;;;;10.30;7.00;;;15.10;46.60;;;;;;6123336;23;20861;-80
2022/04/19 08:28:44;;;;;;;8.63;6.20;;;14.50;43.50;;;;;;6124305;23;20438;-79
2022/04/19 08:31:11;;;;;;;8.73;6.82;;;14.50;45.80;;;;;;6125815;23;20452;-78
2022/04/19 08:33:45;;;;;;;8.95;6.68;;;14.80;45.10;;;;;;6122593;23;20378;-80
2022/04/19 08:36:13;;;;;;;11.35;6.20;;;15.10;45.30;;;;;;6124726;23;20379;-80
2022/04/19 08:38:43;;;;;;;8.55;5.72;;;15.20;42.80;;;;;;6121966;23;21002;-80
2022/04/19 08:41:10;;;;;;;9.07;5.72;;;15.20;42.60;;;;;;6123859;23;20402;-79
2022/04/19 08:43:38;;;;;;;8.68;6.55;;;15.30;42.10;;;;;;6124987;23;20439;-79
2022/04/19 08:46:07;;;;;;;9.85;6.70;;;15.30;43.10;;;;;;6124787;23;20848;-79
2022/04/19 08:48:38;;;;;;;8.75;6.85;;;15.40;42.90;;;;;;6124512;23;20379;-80
2022/04/19 08:51:08;;;;;;;9.18;6.63;;;15.60;43.20;;;;;;6125534;23;20903;-78
2022/04/19 08:59:11;;;;;;;9.23;6.35;;;15.80;41.00;;;;;;6124044;23;20387;-80
2022/04/19 09:01:39;;;;;;;9.70;5.50;;;15.90;40.60;;;;;;6123997;23;20398;-79
2022/04/19 09:04:06;;;;;;;8.88;6.45;;;16.00;42.20;;;;;;6148709;23;20380;-81
2022/04/19 09:06:51;;;;;;;10.85;6.63;;;15.80;40.30;;;;;;6123043;23;20459;-80
2022/04/19 09:09:30;;;;;;;9.15;6.28;;;15.80;41.50;;;;;;6123175;23;20860;-81
2022/04/19 09:12:09;;;;;;;8.38;6.75;;;16.30;39.70;;;;;;6124032;23;20384;-78
2022/04/19 09:14:57;;;;;;;9.18;6.50;;;16.00;40.10;;;;;;6123475;23;20384;-77
2022/04/19 09:17:34;;;;;;;9.13;6.65;;;16.40;40.70;;;;;;6120490;23;20380;-79
2022/04/19 09:20:22;;;;;;;7.60;6.30;;;16.80;39.40;;;;;;6117311;23;20388;-77
2022/04/19 09:23:18;;;;;;;8.02;6.30;;;16.60;40.00;;;;;;6109945;23;20374;-79
2022/04/19 09:25:45;;;;;;;8.05;6.22;;;16.70;39.60;;;;;;6121501;23;20411;-78
2022/04/19 09:28:17;;;;;;;9.05;6.47;;;17.10;40.50;;;;;;6122827;23;20375;-80
2022/04/19 09:30:51;;;;;;;8.30;6.68;;;17.30;39.80;;;;;;6120055;23;20880;-83
2022/04/19 09:33:22;;;;;;;8.02;6.30;;;17.10;39.20;;;;;;6116275;23;20381;-80
2022/04/19 09:35:57;;;;;;;10.43;7.10;;;17.30;38.30;;;;;;6120395;23;20383;-79
2022/04/19 09:38:37;;;;;;;8.85;6.60;;;17.20;39.50;;;;;;6122439;23;20379;-79
2022/04/19 09:41:06;;;;;;;10.13;7.10;;;17.50;39.10;;;;;;6121426;23;20379;-78
2022/04/19 09:44:06;;;;;;;11.27;6.93;;;17.30;38.40;;;;;;6121472;23;20411;-80
2022/04/19 09:46:33;;;;;;;10.05;7.53;;;17.50;40.00;;;;;;6123016;23;20380;-78
2022/04/19 09:49:00;;;;;;;9.82;7.03;;;17.10;38.70;;;;;;6119198;23;20380;-78
2022/04/19 09:51:32;;;;;;;10.05;7.47;;;17.50;38.30;;;;;;6113373;23;20470;-78
2022/04/19 09:53:59;;;;;;;11.00;8.13;;;17.80;37.90;;;;;;6120744;23;20871;-77
2022/04/19 09:56:46;;;;;;;10.48;7.50;;;18.00;37.30;;;;;;6122778;23;20375;-80
2022/04/19 09:59:17;;;;;;;10.63;7.47;;;18.00;38.50;;;;;;6118889;23;21120;-80
2022/04/19 10:10:28;;;;;;;12.55;8.15;;;17.70;38.00;;;;;;6122296;23;20384;-77
2022/04/19 10:13:03;;;;;;;8.90;7.33;;;17.20;37.10;;;;;;6122501;23;20467;-79
2022/04/19 10:15:35;;;;;;;9.50;7.05;;;17.30;38.50;;;;;;6121236;23;20439;-80
2022/04/19 10:18:06;;;;;;;10.57;7.30;;;18.00;37.00;;;;;;6112982;23;20827;-81
2022/04/19 10:20:46;;;;;;;9.77;7.55;;;18.20;36.20;;;;;;6109544;23;20389;-78
2022/04/19 10:23:19;;;;;;;10.27;6.85;;;17.80;35.90;;;;;;6121937;23;20383;-79
2022/04/19 10:25:49;;;;;;;9.68;7.32;;;18.10;36.80;;;;;;6133670;23;20469;-79
2022/04/19 10:28:26;;;;;;;8.93;7.32;;;18.10;36.10;;;;;;6121532;23;20856;-77
2022/04/19 10:30:55;;;;;;;12.30;7.82;;;17.80;36.50;;;;;;6121146;23;20832;-79
2022/04/19 10:33:45;;;;;;;11.77;8.00;;;17.80;37.50;;;;;;6120672;23;20461;-78
2022/04/19 10:36:22;;;;;;;10.43;7.03;;;17.50;36.60;;;;;;6120958;23;20384;-79
2022/04/19 10:39:10;;;;;;;11.18;7.50;;;17.70;37.30;;;;;;6121965;23;20382;-80
2022/04/19 10:41:56;;;;;;;10.05;7.55;;;18.20;37.00;;;;;;6121472;23;20757;-78
2022/04/19 10:44:30;;;;;;;10.10;7.38;;;18.10;38.20;;;;;;6121257;23;20383;-80
2022/04/19 10:47:20;;;;;;;9.90;7.87;;;18.30;37.20;;;;;;6122515;23;20756;-80
2022/04/19 10:49:59;;;;;;;9.37;7.00;;;18.80;36.00;;;;;;6120395;23;20372;-77
2022/04/19 10:52:39;;;;;;;10.53;7.73;;;19.00;37.00;;;;;;6121281;23;20852;-79
2022/04/19 10:55:19;;;;;;;10.52;7.60;;;18.10;35.60;;;;;;6117046;23;20454;-79
2022/04/19 11:00:55;;;;;;;9.70;7.20;;;18.40;37.70;;;;;;6121282;23;20383;-80
2022/04/19 11:03:46;;;;;;;9.70;7.50;;;18.80;35.90;;;;;;6120036;23;20829;-80
2022/04/19 11:06:32;;;;;;;10.20;7.80;;;19.10;36.40;;;;;;6120828;23;20372;-78
2022/04/19 11:09:20;;;;;;;9.13;7.18;;;18.70;36.20;;;;;;6121060;23;20379;-79
2022/04/19 11:11:50;;;;;;;12.40;7.82;;;19.00;36.50;;;;;;6108753;23;20385;-77
2022/04/19 11:14:21;;;;;;;9.43;7.73;;;19.10;36.20;;;;;;6120876;23;20388;-81
2022/04/19 11:16:51;;;;;;;11.57;7.38;;;19.40;35.20;;;;;;6120822;23;20384;-79
2022/04/19 11:19:23;;;;;;;11.23;6.83;;;19.20;34.40;;;;;;6121737;23;20465;-78
2022/04/19 11:21:56;;;;;;;9.82;7.70;;;19.60;36.80;;;;;;6119734;23;20818;-79
2022/04/19 11:24:58;;;;;;;10.05;7.40;;;19.90;34.50;;;;;;6120391;23;20395;-80
2022/04/19 11:27:56;;;;;;;9.52;7.65;;;20.20;35.10;;;;;;6112694;23;20384;-78
2022/04/19 11:30:25;;;;;;;9.80;7.90;;;20.20;34.30;;;;;;6091613;23;20379;-78
2022/04/19 11:32:58;;;;;;;10.43;7.53;;;19.70;35.60;;;;;;6123063;23;20879;-78
2022/04/19 11:35:32;;;;;;;10.33;7.60;;;19.60;34.10;;;;;;6120344;23;20434;-78
2022/04/19 11:38:04;;;;;;;10.38;8.05;;;19.10;35.50;;;;;;6122622;23;20384;-80
2022/04/19 11:48:50;;;;;;;11.30;8.07;;;20.20;34.70;;;;;;6124137;23;20372;-77
2022/04/19 11:51:22;;;;;;;9.93;8.30;;;20.20;34.50;;;;;;6122248;23;20408;-78
2022/04/19 11:53:52;;;;;;;8.60;7.00;;;20.40;33.10;;;;;;6120553;23;21275;-78
2022/04/19 11:56:20;;;;;;;35.05;10.10;;;20.30;32.70;;;;;;6109931;23;20388;-78
2022/04/19 11:58:52;;;;;;;14.40;8.25;;;19.90;34.70;;;;;;6122140;23;20391;-78
2022/04/19 12:01:20;;;;;;;10.70;8.10;;;20.00;35.00;;;;;;6120247;23;20387;-78
2022/04/19 12:03:55;;;;;;;11.07;7.85;;;20.30;32.90;;;;;;6144707;23;20413;-79
2022/04/19 12:06:23;;;;;;;11.63;8.90;;;20.00;33.70;;;;;;6121002;23;20921;-78
2022/04/19 12:08:52;;;;;;;10.60;8.10;;;20.30;33.20;;;;;;6121553;23;20391;-79
2022/04/19 12:11:28;;;;;;;11.17;8.00;;;20.20;33.00;;;;;;6122181;23;20384;-81
2022/04/19 12:13:59;;;;;;;11.98;8.23;;;20.20;34.60;;;;;;6120859;23;20387;-80
2022/04/19 12:16:36;;;;;;;11.85;7.80;;;20.40;33.90;;;;;;6110792;23;20855;-78
2022/04/19 12:19:07;;;;;;;9.45;7.88;;;20.40;33.00;;;;;;6122016;23;20430;-78
2022/04/19 12:21:45;;;;;;;11.40;7.93;;;20.60;33.60;;;;;;6121618;23;20407;-78
2022/04/19 12:24:26;;;;;;;12.10;8.13;;;20.40;33.50;;;;;;6120724;23;20415;-81
2022/04/19 12:27:08;;;;;;;11.38;7.90;;;20.40;32.00;;;;;;6120477;23;20388;-78
2022/04/19 12:29:36;;;;;;;9.67;8.33;;;20.50;34.60;;;;;;6120410;23;20386;-78
2022/04/19 12:32:05;;;;;;;12.38;8.93;;;20.60;32.80;;;;;;6120740;23;20395;-81
2022/04/19 12:34:36;;;;;;;10.32;8.13;;;20.00;33.60;;;;;;6120638;23;20391;-78
2022/04/19 12:37:14;;;;;;;10.90;8.33;;;20.00;33.30;;;;;;6122238;23;20844;-78
2022/04/19 12:40:00;;;;;;;11.00;7.78;;;19.90;33.90;;;;;;6122726;23;20853;-80
2022/04/19 12:42:28;;;;;;;9.65;7.63;;;20.30;33.90;;;;;;6122104;23;20388;-78
2022/04/19 12:45:12;;;;;;;11.13;8.10;;;21.00;31.80;;;;;;6122660;23;20387;-78
2022/04/19 12:47:46;;;;;;;11.73;8.10;;;21.10;31.30;;;;;;6121561;23;20387;-77
2022/04/19 12:50:20;;;;;;;9.15;6.75;;;20.80;30.80;;;;;;6123333;23;20391;-78
2022/04/19 12:52:47;;;;;;;9.48;7.03;;;21.30;33.90;;;;;;6123867;23;20368;-78
2022/04/19 12:55:16;;;;;;;10.60;7.68;;;21.90;31.70;;;;;;6123409;23;20385;-80
2022/04/19 12:57:45;;;;;;;10.70;7.55;;;22.20;32.00;;;;;;6097751;23;20384;-78
2022/04/19 13:00:16;;;;;;;11.00;7.57;;;22.10;30.10;;;;;;6124554;23;20378;-80
2022/04/19 13:02:43;;;;;;;12.07;8.75;;;21.60;30.70;;;;;;6121774;23;20849;-80
2022/04/19 13:05:13;;;;;;;10.63;8.38;;;21.10;30.50;;;;;;6121952;23;20860;-80
2022/04/19 13:13:18;;;;;;;11.70;8.18;;;21.80;30.10;;;;;;6121178;23;20478;-80
2022/04/19 13:15:45;;;;;;;11.32;7.25;;;21.70;29.70;;;;;;6115781;23;20450;-79
2022/04/19 13:18:12;;;;;;;10.85;7.60;;;21.90;30.50;;;;;;6122205;23;20419;-78
2022/04/19 13:20:39;;;;;;;9.63;7.82;;;21.60;30.90;;;;;;6123623;23;20403;-78
2022/04/19 13:23:06;;;;;;;10.85;8.00;;;21.60;30.40;;;;;;6122521;23;20371;-80
2022/04/19 13:25:35;;;;;;;11.17;7.27;;;21.60;30.70;;;;;;6109958;23;20847;-78
2022/04/19 13:28:01;;;;;;;11.57;7.88;;;21.50;31.00;;;;;;6124011;23;20376;-80
2022/04/19 13:30:30;;;;;;;11.02;7.55;;;21.40;31.40;;;;;;6121928;23;20376;-77
2022/04/19 13:32:57;;;;;;;11.77;6.93;;;21.20;31.40;;;;;;6119114;23;20407;-77
2022/04/19 13:35:24;;;;;;;14.85;6.95;;;21.10;32.10;;;;;;6121886;23;20388;-80
2022/04/19 13:40:43;;;;;;;8.37;7.00;;;20.50;33.30;;;;;;6122795;23;20442;-80
2022/04/19 13:43:10;;;;;;;13.77;7.18;;;20.40;32.60;;;;;;6122150;23;20859;-81
2022/04/19 13:45:37;;;;;;;9.93;8.00;;;20.30;33.00;;;;;;6121483;23;20787;-81
2022/04/19 13:48:06;;;;;;;12.93;7.78;;;20.00;32.90;;;;;;6123124;23;20418;-80
2022/04/19 13:50:33;;;;;;;9.93;7.90;;;19.80;34.00;;;;;;6120829;23;20431;-81
2022/04/19 13:53:01;;;;;;;8.35;6.88;;;19.80;34.50;;;;;;6124764;23;20383;-81
2022/04/19 13:55:28;;;;;;;10.07;6.67;;;20.10;34.30;;;;;;6120601;23;20376;-80
2022/04/19 13:57:55;;;;;;;11.13;7.20;;;20.40;35.60;;;;;;6112211;23;20378;-78